Time;durP1;ratioP1;P1;durP2;ratioP2;P2;SDS_P1;SDS_P2;PMS_P1;PMS_P2;Temp;Humidity;BMP_temperature;BMP_pressure;BME280_temperature;BME280_humidity;BME280_pressure;Samples;Min_cycle;Max_cycle;Signal;HPM_P1;HPM_P2
2023/02/18 00:01:36;;;;;;;;;;;;;;;13.44;nan;101198.34;4963846;28;20392;-85
2023/02/18 00:04:01;;;;;;;;;;;;;;;;;;4952860;28;19918;-86
2023/02/18 00:06:26;;;;;;;;;;;;;;;;;;4967829;28;20070;-85
2023/02/18 00:08:51;;;;;;;;;;;;;;;;;;4953937;28;19926;-86
2023/02/18 00:11:17;;;;;;;;;;;;;;;;;;4965777;28;19918;-86
2023/02/18 00:13:42;;;;;;;;;;;;;;;;;;4968330;28;19922;-85
2023/02/18 00:16:07;;;;;;;;;;;;;;;;;;4969941;28;20018;-86
2023/02/18 00:18:32;;;;;;;;;;;;;;;;;;4969525;28;19918;-86
2023/02/18 00:20:57;;;;;;;;;;;;;;;;;;4967154;28;20356;-86
2023/02/18 00:23:23;;;;;;;;;;;;;;;;;;4964550;28;19926;-86
2023/02/18 00:25:48;;;;;;;;;;;;;;;;;;4969888;28;19925;-86
2023/02/18 00:28:13;;;;;;;;;;;;;;;;;;4964838;28;19918;-86
2023/02/18 00:30:38;;;;;;;;;;;;;;;;;;4967295;28;19922;-85
2023/02/18 00:33:03;;;;;;;;;;;;;;;;;;4962486;28;19918;-86
2023/02/18 00:35:28;;;;;;;;;;;;;;;;;;4967811;28;20327;-86
2023/02/18 00:37:54;;;;;;;;;;;;;;;;;;4967514;28;19933;-87
2023/02/18 00:40:19;;;;;;;;;;;;;;;;;;4966189;28;19926;-86
2023/02/18 00:42:44;;;;;;;;;;;;;;;;;;4967603;28;20422;-86
2023/02/18 00:45:09;;;;;;;;;;;;;;;;;;4963757;28;19924;-87
2023/02/18 00:47:34;;;;;;;;;;;;;;;;;;4969886;28;19922;-86
2023/02/18 00:50:00;;;;;;;;;;;;;;;;;;4956635;28;19918;-86
2023/02/18 00:52:25;;;;;;;;;;;;;;;;;;4960346;28;19938;-86
2023/02/18 00:54:50;;;;;;;;;;;;;;;;;;4966123;28;20283;-85
2023/02/18 00:57:15;;;;;;;;;;;;;;;;;;4963551;28;19968;-86
2023/02/18 00:59:40;;;;;;;;;;;;;;;;;;4968444;28;20013;-85
2023/02/18 01:02:06;;;;;;;;;;;;;;;;;;4963570;28;19931;-86
2023/02/18 01:04:31;;;;;;;;;;;;;;;13.18;nan;101237.66;4967692;28;20372;-85
2023/02/18 01:06:57;;;;;;;;;;;;;;;13.19;nan;101222.34;4965396;28;19927;-86
2023/02/18 01:09:24;;;;;;;;;;;;;;;13.12;nan;101227.91;4965881;28;20300;-86
2023/02/18 01:11:50;;;;;;;;;;;;;;;13.13;nan;101213.38;4965879;28;19968;-85
2023/02/18 01:14:15;;;;;;;;;;;;;;;13.15;nan;101208.56;4967491;28;19949;-86
2023/02/18 01:16:40;;;;;;;;;;;;;;;13.11;nan;101223.59;4965492;28;19964;-85
2023/02/18 01:19:06;;;;;;;;;;;;;;;13.07;nan;101214.38;4964675;28;19932;-85
2023/02/18 01:21:31;;;;;;;;;;;;;;;13.12;nan;101221.69;4966635;28;19922;-86
2023/02/18 01:23:58;;;;;;;;;;;;;;;13.08;nan;101223.25;4961998;28;19918;-86
2023/02/18 01:26:23;;;;;;;;;;;;;;;13.10;nan;101229.19;4969410;28;20061;-85
2023/02/18 01:28:49;;;;;;;;;;;;;;;13.04;nan;101241.78;4965834;28;20000;-85
2023/02/18 01:31:14;;;;;;;;;;;;;;;13.06;nan;101241.53;4964132;28;19922;-85
2023/02/18 01:33:40;;;;;;;;;;;;;;;13.08;nan;101236.69;4965749;28;19925;-84
2023/02/18 01:36:06;;;;;;;;;;;;;;;13.10;nan;101240.75;4966080;28;19926;-85
2023/02/18 01:38:31;;;;;;;;;;;;;;;13.06;nan;101234.25;4966641;28;19918;-86
2023/02/18 01:40:57;;;;;;;;;;;;;;;13.04;nan;101212.19;4964538;28;19926;-87
2023/02/18 01:43:22;;;;;;;;;;;;;;;13.04;nan;101220.25;4946840;28;19926;-85
2023/02/18 01:45:50;;;;;;;;;;;;;;;12.98;nan;101227.47;4963038;28;19925;-85
2023/02/18 01:48:19;;;;;;;;;;;;;;;12.97;nan;101219.66;4962272;28;20028;-85
2023/02/18 01:50:50;;;;;;;;;;;;;;;12.96;nan;101215.34;4959272;28;20017;-86
2023/02/18 01:53:17;;;;;;;;;;;;;;;12.98;nan;101234.72;4963076;28;20474;-86
2023/02/18 01:55:43;;;;;;;;;;;;;;;12.99;nan;101229.09;4958936;28;19958;-85
2023/02/18 01:58:10;;;;;;;;;;;;;;;13.00;nan;101228.03;4958343;28;20388;-85
2023/02/18 02:00:35;;;;;;;;;;;;;;;12.98;nan;101222.09;4962820;28;19946;-85
2023/02/18 02:03:01;;;;;;;;;;;;;;;13.05;nan;101226.44;4963189;28;20372;-85
2023/02/18 02:05:29;;;;;;;;;;;;;;;12.96;nan;101221.53;4962658;28;19957;-85
2023/02/18 02:07:54;;;;;;;;;;;;;;;12.93;nan;101234.69;4962863;28;19929;-86
2023/02/18 02:10:20;;;;;;;;;;;;;;;12.95;nan;101230.66;4966126;28;19918;-85
2023/02/18 02:13:01;;;;;;;;;;;;;;;12.91;nan;101224.13;4964581;28;19933;-86
2023/02/18 02:15:38;;;;;;;;;;;;;;;12.86;nan;101228.66;4963875;28;19922;-84
2023/02/18 02:18:13;;;;;;;;;;;;;;;12.87;nan;101230.28;4964841;28;19988;-85
2023/02/18 02:20:38;;;;;;;;;;;;;;;12.85;nan;101243.97;4959556;28;20144;-86
2023/02/18 02:23:23;;;;;;;;;;;;;;;12.87;nan;101230.28;4963215;28;20047;-85
2023/02/18 02:25:58;;;;;;;;;;;;;;;12.89;nan;101233.53;4943616;28;19933;-85
2023/02/18 02:28:42;;;;;;;;;;;;;;;12.86;nan;101234.84;4966009;28;20057;-85
2023/02/18 02:31:20;;;;;;;;;;;;;;;12.83;nan;101218.41;4963964;28;20437;-85
2023/02/18 02:34:04;;;;;;;;;;;;;;;12.78;nan;101219.16;4961871;28;19918;-85
2023/02/18 02:36:53;;;;;;;;;;;;;;;12.76;nan;101228.56;4965302;28;19925;-85
2023/02/18 02:39:23;;;;;;;;;;;;;;;12.73;nan;101229.84;4964632;28;20469;-85
2023/02/18 02:41:53;;;;;;;;;;;;;;;12.73;nan;101235.22;4964111;28;19933;-85
2023/02/18 02:44:20;;;;;;;;;;;;;;;12.73;nan;101237.09;4965173;28;20282;-86
2023/02/18 02:46:47;;;;;;;;;;;;;;;12.72;nan;101241.66;4966040;28;19922;-85
2023/02/18 02:49:27;;;;;;;;;;;;;;;12.73;nan;101239.78;4962600;28;19926;-85
2023/02/18 02:51:57;;;;;;;;;;;;;;;12.74;nan;101250.28;4962761;28;20551;-86
2023/02/18 02:54:24;;;;;;;;;;;;;;;12.71;nan;101248.09;4963736;28;19926;-85
2023/02/18 02:56:50;;;;;;;;;;;;;;;12.69;nan;101240.28;4965371;28;19969;-86
2023/02/18 02:59:18;;;;;;;;;;;;;;;12.66;nan;101267.69;4963426;28;20001;-84
2023/02/18 03:01:44;;;;;;;;;;;;;;;12.66;nan;101272.25;4962161;28;19954;-85
2023/02/18 03:04:18;;;;;;;;;;;;;;;12.71;nan;101275.81;4963385;28;19938;-85
2023/02/18 03:06:46;;;;;;;;;;;;;;;12.68;nan;101284.38;4959819;28;20366;-85
2023/02/18 03:09:37;;;;;;;;;;;;;;;12.67;nan;101281.94;4966275;28;19926;-85
2023/02/18 03:12:11;;;;;;;;;;;;;;;12.70;nan;101279.56;4961977;28;20400;-85
2023/02/18 03:14:52;;;;;;;;;;;;;;;12.69;nan;101277.13;4964361;28;19950;-85
2023/02/18 03:17:33;;;;;;;;;;;;;;;12.61;nan;101274.88;4963918;28;19922;-86
2023/02/18 03:20:06;;;;;;;;;;;;;;;12.60;nan;101281.31;4965865;28;19918;-85
2023/02/18 03:22:36;;;;;;;;;;;;;;;12.67;nan;101285.44;4963793;28;19930;-85
2023/02/18 03:25:02;;;;;;;;;;;;;;;12.63;nan;101280.81;4964247;28;19927;-85
2023/02/18 03:27:32;;;;;;;;;;;;;;;12.67;nan;101279.25;4966497;28;19922;-85
2023/02/18 03:30:06;;;;;;;;;;;;;;;12.63;nan;101280.81;4966933;28;19930;-85
2023/02/18 03:32:33;;;;;;;;;;;;;;;12.62;nan;101274.63;4968175;28;19918;-85
2023/02/18 03:35:17;;;;;;;;;;;;;;;12.61;nan;101275.69;4969522;28;19968;-85
2023/02/18 03:37:46;;;;;;;;;;;;;;;12.59;nan;101275.13;4965172;28;19987;-85
2023/02/18 03:40:12;;;;;;;;;;;;;;;12.56;nan;101280.16;4959534;28;19949;-85
2023/02/18 03:42:38;;;;;;;;;;;;;;;12.57;nan;101297.94;4960117;28;21755;-86
2023/02/18 03:45:03;;;;;;;;;;;;;;;12.57;nan;101304.13;4958836;28;19918;-85
2023/02/18 03:47:29;;;;;;;;;;;;;;;12.54;nan;101311.84;4960526;28;19933;-85
2023/02/18 03:49:54;;;;;;;;;;;;;;;12.55;nan;101313.47;4958527;28;19991;-85
2023/02/18 03:52:20;;;;;;;;;;;;;;;12.59;nan;101306.56;4957875;28;20026;-86
2023/02/18 03:54:45;;;;;;;;;;;;;;;12.62;nan;101308.75;4961011;28;19942;-86
2023/02/18 03:57:10;;;;;;;;;;;;;;;12.56;nan;101315.09;4958467;28;20045;-85
2023/02/18 03:59:36;;;;;;;;;;;;;;;12.59;nan;101295.81;4945891;28;19955;-85
2023/02/18 04:02:01;;;;;;;;;;;;;;;12.60;nan;101305.50;4968933;28;19925;-85
2023/02/18 04:04:27;;;;;;;;;;;;;;;12.61;nan;101297.19;4967338;28;19928;-85
2023/02/18 04:06:52;;;;;;;;;;;;;;;12.61;nan;101282.94;4968107;28;19926;-86
2023/02/18 04:09:18;;;;;;;;;;;;;;;12.56;nan;101288.22;4966871;28;20456;-84
2023/02/18 04:11:43;;;;;;;;;;;;;;;12.54;nan;101284.97;4968975;28;20343;-85
2023/02/18 04:14:09;;;;;;;;;;;;;;;12.55;nan;101297.34;4967617;28;19937;-85
2023/02/18 04:16:34;;;;;;;;;;;;;;;12.52;nan;101297.84;4969279;28;20336;-85
2023/02/18 04:19:00;;;;;;;;;;;;;;;12.45;nan;101295.34;4952257;28;19960;-85
2023/02/18 04:21:25;;;;;;;;;;;;;;;12.41;nan;101286.16;4968827;28;20327;-86
2023/02/18 04:23:50;;;;;;;;;;;;;;;12.46;nan;101296.16;4968899;28;20277;-85
2023/02/18 04:26:16;;;;;;;;;;;;;;;12.43;nan;101293.97;4969346;28;19926;-85
2023/02/18 04:28:41;;;;;;;;;;;;;;;12.44;nan;101284.84;4970506;28;20462;-85
2023/02/18 04:31:06;;;;;;;;;;;;;;;12.35;nan;101279.88;4967825;28;20383;-85
2023/02/18 04:33:32;;;;;;;;;;;;;;;12.31;nan;101286.81;4968374;28;19996;-85
2023/02/18 04:35:57;;;;;;;;;;;;;;;12.35;nan;101293.31;4969030;28;19918;-85
2023/02/18 04:38:22;;;;;;;;;;;;;;;12.27;nan;101288.38;4968262;28;19926;-85
2023/02/18 04:40:48;;;;;;;;;;;;;;;12.29;nan;101297.00;4964695;28;19960;-85
2023/02/18 04:43:13;;;;;;;;;;;;;;;12.27;nan;101296.44;4965413;28;19926;-86
2023/02/18 04:45:39;;;;;;;;;;;;;;;12.30;nan;101289.75;4970906;28;20025;-84
2023/02/18 04:48:04;;;;;;;;;;;;;;;12.27;nan;101288.38;4966591;28;19921;-84
2023/02/18 04:50:30;;;;;;;;;;;;;;;12.22;nan;101288.31;4966490;28;19958;-84
2023/02/18 04:52:55;;;;;;;;;;;;;;;12.18;nan;101291.69;4967695;28;19925;-83
2023/02/18 04:55:20;;;;;;;;;;;;;;;12.17;nan;101288.19;4969246;28;19964;-84
2023/02/18 04:57:47;;;;;;;;;;;;;;;12.19;nan;101304.06;4966291;28;19942;-84
2023/02/18 05:00:16;;;;;;;;;;;;;;;12.13;nan;101279.00;4969262;28;19926;-84
2023/02/18 05:02:42;;;;;;;;;;;;;;;12.16;nan;101291.94;4965100;28;19929;-83
2023/02/18 05:05:08;;;;;;;;;;;;;;;12.11;nan;101299.94;4968573;28;19948;-83
2023/02/18 05:07:33;;;;;;;;;;;;;;;12.12;nan;101292.69;4966768;28;19926;-83
2023/02/18 05:09:58;;;;;;;;;;;;;;;12.11;nan;101302.63;4968419;28;19918;-83
2023/02/18 05:12:24;;;;;;;;;;;;;;;12.12;nan;101315.00;4967233;28;21282;-84
2023/02/18 05:14:49;;;;;;;;;;;;;;;12.05;nan;101293.69;4970993;28;19918;-83
2023/02/18 05:17:14;;;;;;;;;;;;;;;12.04;nan;101305.47;4967321;28;19922;-84
2023/02/18 05:19:40;;;;;;;;;;;;;;;12.13;nan;101305.88;4968275;28;20406;-84
2023/02/18 05:22:05;;;;;;;;;;;;;;;12.06;nan;101307.91;4967002;28;19934;-84
2023/02/18 05:24:30;;;;;;;;;;;;;;;12.02;nan;101307.56;4965826;28;20285;-85
2023/02/18 05:26:56;;;;;;;;;;;;;;;11.96;nan;101305.06;4968081;28;19918;-83
2023/02/18 05:29:21;;;;;;;;;;;;;;;11.98;nan;101309.13;4968539;28;19941;-83
2023/02/18 05:31:46;;;;;;;;;;;;;;;12.02;nan;101317.50;4968422;28;19922;-84
2023/02/18 05:34:12;;;;;;;;;;;;;;;12.00;nan;101314.25;4965231;28;20259;-84
2023/02/18 05:36:37;;;;;;;;;;;;;;;12.01;nan;101313.19;4966860;28;20384;-83
2023/02/18 05:39:02;;;;;;;;;;;;;;;11.93;nan;101313.59;4966892;28;19922;-84
2023/02/18 05:41:28;;;;;;;;;;;;;;;11.92;nan;101322.72;4965373;28;19926;-84
2023/02/18 05:46:37;;;;;;;;;;;;;;;11.86;nan;101329.06;4963168;28;19997;-84
2023/02/18 05:49:02;;;;;;;;;;;;;;;11.85;nan;101328.25;4965819;28;20381;-83
2023/02/18 05:51:28;;;;;;;;;;;;;;;11.85;nan;101332.78;4968106;28;19922;-84
2023/02/18 05:53:54;;;;;;;;;;;;;;;11.90;nan;101336.38;4961955;28;20468;-83
2023/02/18 05:56:19;;;;;;;;;;;;;;;11.90;nan;101325.66;4965930;28;20017;-84
2023/02/18 05:58:45;;;;;;;;;;;;;;;11.88;nan;101335.00;4963933;28;19985;-85
2023/02/18 06:01:10;;;;;;;;;;;;;;;11.96;nan;101324.66;4967205;28;20214;-84
2023/02/18 06:03:35;;;;;;;;;;;;;;;11.90;nan;101328.34;4963385;28;19965;-84
2023/02/18 06:06:01;;;;;;;;;;;;;;;11.93;nan;101327.84;4968016;28;19925;-84
2023/02/18 06:08:26;;;;;;;;;;;;;;;11.87;nan;101334.19;4965750;28;20391;-84
2023/02/18 06:10:52;;;;;;;;;;;;;;;11.98;nan;101335.16;4965921;28;20352;-83
2023/02/18 06:13:17;;;;;;;;;;;;;;;11.90;nan;101336.38;4966560;28;19918;-84
2023/02/18 06:15:42;;;;;;;;;;;;;;;11.90;nan;101332.88;4968942;28;19918;-83
2023/02/18 06:18:08;;;;;;;;;;;;;;;11.91;nan;101335.34;4966769;28;19921;-83
2023/02/18 06:20:33;;;;;;;;;;;;;;;11.90;nan;101327.53;4969055;28;20004;-84
2023/02/18 06:22:59;;;;;;;;;;;;;;;11.90;nan;101332.88;4964858;28;19985;-83
2023/02/18 06:25:24;;;;;;;;;;;;;;;11.91;nan;101338.00;4948560;28;19926;-84
2023/02/18 06:27:49;;;;;;;;;;;;;;;11.93;nan;101335.91;4965756;28;19918;-83
2023/02/18 06:30:15;;;;;;;;;;;;;;;11.98;nan;101327.09;4967279;28;20493;-83
2023/02/18 06:32:40;;;;;;;;;;;;;;;11.99;nan;101334.09;4966261;28;19945;-83
2023/02/18 06:35:06;;;;;;;;;;;;;;;11.99;nan;101332.22;4965330;28;19981;-83
2023/02/18 06:37:31;;;;;;;;;;;;;;;11.98;nan;101335.16;4967581;28;19929;-84
2023/02/18 06:39:56;;;;;;;;;;;;;;;11.97;nan;101336.22;4964625;28;19917;-84
2023/02/18 06:42:22;;;;;;;;;;;;;;;12.03;nan;101335.28;4965894;28;20153;-84
2023/02/18 06:44:47;;;;;;;;;;;;;;;12.01;nan;101329.31;4960375;28;19922;-84
2023/02/18 06:47:13;;;;;;;;;;;;;;;12.07;nan;101328.34;4965136;28;19926;-84
2023/02/18 06:49:38;;;;;;;;;;;;;;;12.08;nan;101324.59;4963415;28;20455;-84
2023/02/18 06:52:04;;;;;;;;;;;;;;;12.12;nan;101328.41;4964035;28;19918;-83
2023/02/18 06:54:29;;;;;;;;;;;;;;;12.07;nan;101339.09;4964013;28;20009;-83
2023/02/18 06:56:55;;;;;;;;;;;;;;;12.15;nan;101340.53;4966484;28;20291;-84
2023/02/18 06:59:20;;;;;;;;;;;;;;;12.16;nan;101337.63;4965012;28;19942;-83
2023/02/18 07:01:45;;;;;;;;;;;;;;;12.24;nan;101333.72;4965148;28;20060;-84
2023/02/18 07:04:11;;;;;;;;;;;;;;;12.24;nan;101339.09;4963472;28;19929;-83
2023/02/18 07:06:36;;;;;;;;;;;;;;;12.21;nan;101336.88;4969329;28;19925;-84
2023/02/18 07:09:01;;;;;;;;;;;;;;;12.27;nan;101349.34;4971678;28;19944;-84
2023/02/18 07:11:27;;;;;;;;;;;;;;;12.24;nan;101339.91;4968891;28;19972;-83
2023/02/18 07:13:52;;;;;;;;;;;;;;;12.27;nan;101333.22;4970112;28;19949;-84
2023/02/18 07:16:17;;;;;;;;;;;;;;;12.26;nan;101353.91;4973808;28;20372;-84
2023/02/18 07:18:43;;;;;;;;;;;;;;;12.28;nan;101330.28;4972652;28;19929;-84
2023/02/18 07:21:08;;;;;;;;;;;;;;;12.27;nan;101327.84;4972029;28;19922;-83
2023/02/18 07:23:34;;;;;;;;;;;;;;;12.35;nan;101327.44;4972119;28;20012;-84
2023/02/18 07:26:07;;;;;;;;;;;;;;;12.37;nan;101336.06;4974060;28;19957;-83
2023/02/18 07:28:32;;;;;;;;;;;;;;;12.43;nan;101318.97;4974587;28;19918;-84
2023/02/18 07:30:57;;;;;;;;;;;;;;;12.52;nan;101316.66;4973539;28;20304;-83
2023/02/18 07:33:23;;;;;;;;;;;;;;;12.59;nan;101334.25;4971639;28;19988;-83
2023/02/18 07:35:52;;;;;;;;;;;;;;;12.66;nan;101326.00;4972633;28;20064;-84
2023/02/18 07:38:17;;;;;;;;;;;;;;;12.72;nan;101335.75;4971495;28;19918;-83
2023/02/18 07:40:44;;;;;;;;;;;;;;;12.75;nan;101343.38;4971163;28;20418;-83
2023/02/18 07:43:09;;;;;;;;;;;;;;;12.78;nan;101329.41;4972062;28;19987;-84
2023/02/18 07:45:37;;;;;;;;;;;;;;;12.83;nan;101329.47;4974407;28;20395;-83
2023/02/18 07:48:02;;;;;;;;;;;;;;;12.83;nan;101317.91;4971262;28;20389;-83
2023/02/18 07:50:27;;;;;;;;;;;;;;;12.88;nan;101318.78;4971479;28;19929;-83
2023/02/18 07:52:53;;;;;;;;;;;;;;;12.82;nan;101298.28;4971024;28;19922;-83
2023/02/18 07:55:18;;;;;;;;;;;;;;;12.85;nan;101311.22;4970180;28;19918;-83
2023/02/18 07:58:01;;;;;;;;;;;;;;;12.91;nan;101304.00;4974001;28;19918;-83
2023/02/18 08:00:26;;;;;;;;;;;;;;;12.89;nan;101304.28;4971693;28;21603;-83
2023/02/18 08:02:51;;;;;;;;;;;;;;;12.94;nan;101312.44;4972866;28;20016;-83
2023/02/18 08:05:17;;;;;;;;;;;;;;;12.92;nan;101322.59;4977901;28;19929;-83
2023/02/18 08:07:42;;;;;;;;;;;;;;;12.95;nan;101313.22;4975512;28;19938;-84
2023/02/18 08:10:08;;;;;;;;;;;;;;;12.93;nan;101305.41;4977329;28;19918;-83
2023/02/18 08:12:33;;;;;;;;;;;;;;;12.96;nan;101304.91;4977513;28;19919;-83
2023/02/18 08:14:58;;;;;;;;;;;;;;;12.99;nan;101293.66;4976901;28;19937;-83
2023/02/18 08:17:24;;;;;;;;;;;;;;;12.98;nan;101302.78;4965066;28;19926;-83
2023/02/18 08:19:49;;;;;;;;;;;;;;;13.01;nan;101296.91;4974656;28;20403;-84
2023/02/18 08:22:14;;;;;;;;;;;;;;;12.93;nan;101286.59;4966834;28;20590;-83
2023/02/18 08:24:40;;;;;;;;;;;;;;;12.99;nan;101290.97;4964632;28;20013;-82
2023/02/18 08:27:05;;;;;;;;;;;;;;;13.05;nan;101285.63;4970139;28;20028;-83
2023/02/18 08:29:30;;;;;;;;;;;;;;;13.11;nan;101284.66;4967953;28;19982;-83
2023/02/18 08:31:56;;;;;;;;;;;;;;;13.21;nan;101279.41;4964886;28;19933;-82
2023/02/18 08:34:22;;;;;;;;;;;;;;;13.30;nan;101277.91;4968775;28;19930;-83
2023/02/18 08:36:47;;;;;;;;;;;;;;;13.33;nan;101271.19;4965648;28;19928;-83
2023/02/18 08:39:12;;;;;;;;;;;;;;;13.42;nan;101275.03;4973687;28;20215;-83
2023/02/18 08:41:38;;;;;;;;;;;;;;;13.43;nan;101269.41;4950280;28;19927;-83
2023/02/18 08:44:03;;;;;;;;;;;;;;;13.51;nan;101268.94;4965657;28;19965;-83
2023/02/18 08:46:29;;;;;;;;;;;;;;;13.47;nan;101284.00;4968889;28;19985;-83
2023/02/18 08:48:54;;;;;;;;;;;;;;;13.49;nan;101281.03;4966536;28;19938;-83
2023/02/18 08:51:21;;;;;;;;;;;;;;;13.54;nan;101275.69;4968859;28;19926;-83
2023/02/18 08:53:46;;;;;;;;;;;;;;;13.54;nan;101279.22;4968928;28;19997;-83
2023/02/18 08:56:13;;;;;;;;;;;;;;;13.59;nan;101273.88;4967794;28;20179;-83
2023/02/18 08:58:39;;;;;;;;;;;;;;;13.61;nan;101271.72;4960752;28;19932;-83
2023/02/18 09:01:05;;;;;;;;;;;;;;;13.61;nan;101274.41;4964833;28;19930;-83
2023/02/18 09:03:31;;;;;;;;;;;;;;;13.61;nan;101269.03;4970509;28;20456;-82
2023/02/18 09:05:57;;;;;;;;;;;;;;;13.61;nan;101252.88;4971952;28;19957;-83
2023/02/18 09:08:22;;;;;;;;;;;;;;;13.59;nan;101255.00;4945127;28;19926;-83
2023/02/18 09:10:48;;;;;;;;;;;;;;;13.64;nan;101250.75;4963367;28;19918;-83
2023/02/18 09:13:13;;;;;;;;;;;;;;;13.66;nan;101252.13;4964347;28;20620;-83
2023/02/18 09:15:38;;;;;;;;;;;;;;;13.69;nan;101245.41;4968559;28;19972;-84
2023/02/18 09:18:04;;;;;;;;;;;;;;;13.65;nan;101238.94;4969738;28;19925;-83
2023/02/18 09:20:29;;;;;;;;;;;;;;;13.70;nan;101239.78;4970617;28;19922;-84
2023/02/18 09:22:56;;;;;;;;;;;;;;;13.75;nan;101236.31;4970179;28;19937;-83
2023/02/18 09:25:22;;;;;;;;;;;;;;;13.71;nan;101245.97;4972937;28;19925;-84
2023/02/18 09:27:47;;;;;;;;;;;;;;;13.77;nan;101236.84;4955605;28;19918;-84
2023/02/18 09:30:12;;;;;;;;;;;;;;;13.75;nan;101241.69;4973497;28;20454;-83
2023/02/18 09:32:38;;;;;;;;;;;;;;;13.79;nan;101242.78;4970982;28;20276;-85
2023/02/18 09:35:04;;;;;;;;;;;;;;;13.82;nan;101237.72;4971858;28;19925;-84
2023/02/18 09:37:29;;;;;;;;;;;;;;;13.81;nan;101235.25;4968783;28;19965;-84
2023/02/18 09:39:55;;;;;;;;;;;;;;;13.84;nan;101237.47;4971990;28;19932;-83
2023/02/18 09:42:23;;;;;;;;;;;;;;;13.85;nan;101218.34;4968664;28;19926;-84
2023/02/18 09:44:53;;;;;;;;;;;;;;;13.94;nan;101229.44;4967694;28;19948;-84
2023/02/18 09:47:24;;;;;;;;;;;;;;;13.99;nan;101218.69;4969801;28;19977;-83
2023/02/18 09:49:53;;;;;;;;;;;;;;;14.01;nan;101213.88;4966345;28;19980;-84
2023/02/18 09:52:22;;;;;;;;;;;;;;;14.03;nan;101213.63;4970521;28;19922;-83
2023/02/18 09:54:48;;;;;;;;;;;;;;;14.01;nan;101195.03;4976579;28;19922;-84
2023/02/18 09:57:36;;;;;;;;;;;;;;;13.96;nan;101194.97;4962185;28;19933;-83
2023/02/18 10:00:05;;;;;;;;;;;;;;;14.03;nan;101200.97;4968383;28;19922;-83
2023/02/18 10:02:31;;;;;;;;;;;;;;;14.00;nan;101193.38;4962683;28;20529;-83
2023/02/18 10:04:57;;;;;;;;;;;;;;;13.95;nan;101193.34;4964547;28;19929;-83
2023/02/18 10:07:33;;;;;;;;;;;;;;;14.03;nan;101194.75;4967625;28;19930;-84
2023/02/18 10:10:01;;;;;;;;;;;;;;;13.95;nan;101184.47;4960191;28;19976;-84
2023/02/18 10:12:29;;;;;;;;;;;;;;;13.84;nan;101180.91;4955702;28;19922;-84
2023/02/18 10:14:57;;;;;;;;;;;;;;;13.90;nan;101177.16;4964159;28;19928;-84
2023/02/18 10:20:39;;;;;;;;;;;;;;;13.96;nan;101162.66;4957635;28;19945;-84
2023/02/18 10:32:33;;;;;;;;;;;;;;;13.98;nan;101138.94;4970972;28;19933;-84
2023/02/18 10:47:24;;;;;;;;;;;;;;;14.05;nan;101096.44;5003363;28;19933;-82
2023/02/18 10:50:07;;;;;;;;;;;;;;;14.02;nan;101096.16;5000898;28;19929;-82
2023/02/18 10:52:36;;;;;;;;;;;;;;;13.97;nan;101102.31;5002291;28;19917;-83
2023/02/18 10:55:10;;;;;;;;;;;;;;;13.97;nan;101109.56;5002249;28;20316;-83
2023/02/18 10:57:44;;;;;;;;;;;;;;;13.93;nan;101112.00;5004546;28;19921;-83
2023/02/18 11:00:17;;;;;;;;;;;;;;;13.97;nan;101114.97;5008367;28;19936;-83
2023/02/18 11:02:43;;;;;;;;;;;;;;;13.93;nan;101109.28;5001111;28;19929;-83
2023/02/18 11:05:25;;;;;;;;;;;;;;;13.93;nan;101103.91;5000894;28;19917;-83
2023/02/18 11:07:52;;;;;;;;;;;;;;;13.89;nan;101098.25;5004228;28;19971;-83
2023/02/18 11:10:17;;;;;;;;;;;;;;;13.80;nan;101099.78;5005124;28;20012;-83
2023/02/18 11:12:50;;;;;;;;;;;;;;;13.73;nan;101107.31;4995731;28;20016;-83
2023/02/18 11:15:23;;;;;;;;;;;;;;;13.66;nan;101122.06;5003411;28;20391;-83
2023/02/18 11:17:50;;;;;;;;;;;;;;;13.59;nan;101095.34;5002162;28;19976;-83
2023/02/18 11:20:29;;;;;;;;;;;;;;;13.57;nan;101098.31;5004201;28;19925;-83
2023/02/18 11:22:59;;;;;;;;;;;;;;;13.55;nan;101091.56;5004396;28;19929;-84
2023/02/18 11:25:26;;;;;;;;;;;;;;;13.50;nan;101073.50;5007977;28;19956;-83
2023/02/18 11:27:56;;;;;;;;;;;;;;;13.38;nan;101070.19;5004937;28;19925;-83
2023/02/18 11:30:36;;;;;;;;;;;;;;;13.36;nan;101063.44;5003060;28;19929;-83
2023/02/18 11:33:05;;;;;;;;;;;;;;;13.32;nan;101049.69;4996433;28;19940;-83
2023/02/18 11:35:32;;;;;;;;;;;;;;;13.37;nan;101047.03;4989270;28;19937;-83
2023/02/18 11:37:59;;;;;;;;;;;;;;;13.35;nan;101043.78;5007676;28;19928;-83
2023/02/18 11:40:29;;;;;;;;;;;;;;;13.23;nan;101025.13;4988530;28;19952;-84
2023/02/18 11:43:05;;;;;;;;;;;;;;;13.19;nan;101023.22;5002023;28;20012;-83
2023/02/18 11:45:35;;;;;;;;;;;;;;;13.20;nan;101030.22;4998969;28;20427;-83
2023/02/18 11:48:01;;;;;;;;;;;;;;;13.12;nan;101028.00;5005656;28;19921;-83
2023/02/18 11:50:30;;;;;;;;;;;;;;;13.13;nan;101013.47;4999279;28;19972;-83
2023/02/18 11:52:57;;;;;;;;;;;;;;;13.10;nan;101009.41;5006169;28;19939;-83
2023/02/18 11:55:24;;;;;;;;;;;;;;;13.08;nan;101011.53;5005121;28;20405;-83
2023/02/18 11:57:54;;;;;;;;;;;;;;;13.13;nan;101013.47;5006181;28;19922;-83
2023/02/18 12:00:24;;;;;;;;;;;;;;;13.12;nan;100995.72;5001573;28;19925;-83
2023/02/18 12:02:51;;;;;;;;;;;;;;;13.13;nan;100997.34;4997700;28;19930;-84
2023/02/18 12:05:24;;;;;;;;;;;;;;;13.16;nan;100981.47;5007209;28;20502;-83
2023/02/18 12:08:02;;;;;;;;;;;;;;;13.13;nan;100970.44;5006984;28;20000;-83
2023/02/18 12:10:32;;;;;;;;;;;;;;;13.14;nan;100966.69;5010215;28;20294;-83
2023/02/18 12:13:16;;;;;;;;;;;;;;;13.11;nan;100967.19;5003996;28;19924;-84
2023/02/18 12:15:51;;;;;;;;;;;;;;;13.12;nan;100971.50;5009898;28;20020;-84
2023/02/18 12:18:26;;;;;;;;;;;;;;;13.07;nan;100963.38;5008897;28;20307;-84
2023/02/18 12:21:11;;;;;;;;;;;;;;;13.06;nan;100956.38;5004183;28;20424;-84
2023/02/18 12:23:41;;;;;;;;;;;;;;;13.05;nan;100957.47;5002094;28;19925;-83
2023/02/18 12:26:25;;;;;;;;;;;;;;;13.03;nan;100963.09;5004093;28;19933;-83
2023/02/18 12:29:29;;;;;;;;;;;;;;;12.97;nan;100962.25;5001806;28;19929;-83
2023/02/18 12:32:12;;;;;;;;;;;;;;;13.02;nan;100959.59;4907649;29;19951;-83
2023/02/18 12:35:00;;;;;;;;;;;;;;;12.95;nan;100956.34;4906756;29;20545;-84
2023/02/18 12:37:44;;;;;;;;;;;;;;;12.97;nan;100950.69;4971775;28;20398;-84
2023/02/18 12:40:26;;;;;;;;;;;;;;;13.02;nan;100956.09;4991456;28;19921;-84
2023/02/18 12:43:10;;;;;;;;;;;;;;;13.08;nan;100955.06;4976126;28;20565;-84
2023/02/18 12:45:55;;;;;;;;;;;;;;;13.14;nan;100955.91;4993137;28;20457;-84
2023/02/18 12:48:43;;;;;;;;;;;;;;;13.11;nan;100945.69;4992500;28;19932;-83
2023/02/18 12:51:21;;;;;;;;;;;;;;;13.12;nan;100945.41;5001829;28;19922;-83
2023/02/18 12:54:05;;;;;;;;;;;;;;;13.16;nan;100943.00;5002094;28;19993;-84
2023/02/18 12:56:53;;;;;;;;;;;;;;;13.19;nan;100945.22;5000820;28;20467;-84
2023/02/18 13:00:03;;;;;;;;;;;;;;;13.23;nan;100932.84;4986941;28;19960;-84
2023/02/18 13:02:44;;;;;;;;;;;;;;;13.26;nan;100921.56;4997170;28;20358;-83
2023/02/18 13:05:29;;;;;;;;;;;;;;;13.31;nan;100918.91;5001648;28;19926;-84
2023/02/18 13:07:55;;;;;;;;;;;;;;;13.34;nan;100915.69;4996948;28;20374;-84
2023/02/18 13:10:28;;;;;;;;;;;;;;;13.35;nan;100903.84;4998044;28;19929;-84
2023/02/18 13:13:16;;;;;;;;;;;;;;;13.37;nan;100888.25;4980032;28;19968;-83
2023/02/18 13:15:59;;;;;;;;;;;;;;;13.44;nan;100890.69;5000710;28;20367;-84
2023/02/18 13:18:30;;;;;;;;;;;;;;;13.48;nan;100892.63;4998613;28;20060;-85
2023/02/18 13:20:58;;;;;;;;;;;;;;;13.53;nan;100889.13;5000728;28;19922;-86
2023/02/18 13:23:27;;;;;;;;;;;;;;;13.57;nan;100891.03;5000574;28;20396;-85
2023/02/18 13:25:56;;;;;;;;;;;;;;;13.59;nan;100878.09;5001673;28;19932;-85
2023/02/18 13:28:39;;;;;;;;;;;;;;;13.60;nan;100868.94;5002466;28;19921;-85
2023/02/18 13:31:11;;;;;;;;;;;;;;;13.64;nan;100876.50;5001227;28;20200;-86
2023/02/18 13:33:49;;;;;;;;;;;;;;;13.64;nan;100863.03;5001842;28;19976;-85
2023/02/18 13:36:35;;;;;;;;;;;;;;;13.65;nan;100861.97;4998020;28;20558;-85
2023/02/18 13:39:04;;;;;;;;;;;;;;;13.64;nan;100857.63;4998956;28;20016;-85
2023/02/18 13:41:33;;;;;;;;;;;;;;;13.66;nan;100867.09;5003022;28;19933;-87
2023/02/18 13:43:58;;;;;;;;;;;;;;;13.68;nan;100867.63;5003139;28;20410;-85
2023/02/18 13:46:24;;;;;;;;;;;;;;;13.67;nan;100865.22;4997485;28;19936;-85